sensor_id;sensor_type;location;lat;lon;timestamp;pressure;altitude;pressure_sealevel;temperature
74060;BMP280;62414;53.436;8.828;2022-11-02T00:00:12;101241.81;;;11.89
74060;BMP280;62414;53.436;8.828;2022-11-02T00:02:38;101232.91;;;11.88
74060;BMP280;62414;53.436;8.828;2022-11-02T00:05:06;101234.41;;;11.89
74060;BMP280;62414;53.436;8.828;2022-11-02T00:07:32;101231.31;;;11.91
74060;BMP280;62414;53.436;8.828;2022-11-02T00:09:57;101215.13;;;11.87
74060;BMP280;62414;53.436;8.828;2022-11-02T00:12:22;101226.81;;;11.84
74060;BMP280;62414;53.436;8.828;2022-11-02T00:14:48;101212.91;;;11.82
74060;BMP280;62414;53.436;8.828;2022-11-02T00:17:13;101220.72;;;11.80
74060;BMP280;62414;53.436;8.828;2022-11-02T00:19:39;101206.50;;;11.76
74060;BMP280;62414;53.436;8.828;2022-11-02T00:22:06;101217.75;;;11.74
74060;BMP280;62414;53.436;8.828;2022-11-02T00:24:32;101201.94;;;11.73
74060;BMP280;62414;53.436;8.828;2022-11-02T00:26:58;101210.81;;;11.73
74060;BMP280;62414;53.436;8.828;2022-11-02T00:29:23;101210.38;;;11.75
74060;BMP280;62414;53.436;8.828;2022-11-02T00:31:49;101210.50;;;11.71
74060;BMP280;62414;53.436;8.828;2022-11-02T00:34:15;101200.41;;;11.72
74060;BMP280;62414;53.436;8.828;2022-11-02T00:36:41;101190.31;;;11.72
74060;BMP280;62414;53.436;8.828;2022-11-02T00:39:08;101192.28;;;11.72
74060;BMP280;62414;53.436;8.828;2022-11-02T00:41:33;101189.97;;;11.70
74060;BMP280;62414;53.436;8.828;2022-11-02T00:43:59;101187.25;;;11.70
74060;BMP280;62414;53.436;8.828;2022-11-02T00:46:25;101172.09;;;11.73
74060;BMP280;62414;53.436;8.828;2022-11-02T00:48:50;101181.72;;;11.74
74060;BMP280;62414;53.436;8.828;2022-11-02T00:51:16;101181.31;;;11.75
74060;BMP280;62414;53.436;8.828;2022-11-02T00:53:42;101176.66;;;11.76
74060;BMP280;62414;53.436;8.828;2022-11-02T00:56:09;101180.47;;;11.78
74060;BMP280;62414;53.436;8.828;2022-11-02T00:58:35;101174.06;;;11.85
74060;BMP280;62414;53.436;8.828;2022-11-02T01:01:03;101182.03;;;11.92
74060;BMP280;62414;53.436;8.828;2022-11-02T01:03:29;101183.78;;;11.99
74060;BMP280;62414;53.436;8.828;2022-11-02T01:05:54;101180.53;;;12.04
74060;BMP280;62414;53.436;8.828;2022-11-02T01:08:19;101171.91;;;12.09
74060;BMP280;62414;53.436;8.828;2022-11-02T01:10:45;101174.84;;;12.14
74060;BMP280;62414;53.436;8.828;2022-11-02T01:16:33;101178.00;;;12.26
74060;BMP280;62414;53.436;8.828;2022-11-02T01:18:59;101169.31;;;12.31
74060;BMP280;62414;53.436;8.828;2022-11-02T01:21:24;101160.66;;;12.36
74060;BMP280;62414;53.436;8.828;2022-11-02T01:23:50;101155.56;;;12.38
74060;BMP280;62414;53.436;8.828;2022-11-02T01:26:16;101125.59;;;12.41
74060;BMP280;62414;53.436;8.828;2022-11-02T01:28:42;101166.56;;;12.47
74060;BMP280;62414;53.436;8.828;2022-11-02T01:31:08;101154.38;;;12.39
74060;BMP280;62414;53.436;8.828;2022-11-02T01:33:35;101154.69;;;12.28
74060;BMP280;62414;53.436;8.828;2022-11-02T01:36:03;101150.28;;;12.18
74060;BMP280;62414;53.436;8.828;2022-11-02T01:38:29;101156.69;;;12.11
74060;BMP280;62414;53.436;8.828;2022-11-02T01:40:55;101147.91;;;12.07
74060;BMP280;62414;53.436;8.828;2022-11-02T01:43:22;101140.72;;;12.01
74060;BMP280;62414;53.436;8.828;2022-11-02T01:45:51;101130.38;;;11.96
74060;BMP280;62414;53.436;8.828;2022-11-02T01:48:18;101133.22;;;11.92
74060;BMP280;62414;53.436;8.828;2022-11-02T01:50:47;101131.25;;;11.93
74060;BMP280;62414;53.436;8.828;2022-11-02T01:53:13;101135.91;;;11.92
74060;BMP280;62414;53.436;8.828;2022-11-02T01:55:39;101143.63;;;11.94
74060;BMP280;62414;53.436;8.828;2022-11-02T01:58:09;101125.91;;;11.89
74060;BMP280;62414;53.436;8.828;2022-11-02T02:00:35;101132.09;;;11.90
74060;BMP280;62414;53.436;8.828;2022-11-02T02:03:04;101122.44;;;11.89
74060;BMP280;62414;53.436;8.828;2022-11-02T02:05:31;101123.66;;;11.88
74060;BMP280;62414;53.436;8.828;2022-11-02T02:07:59;101121.25;;;11.90
74060;BMP280;62414;53.436;8.828;2022-11-02T02:10:26;101117.38;;;11.91
74060;BMP280;62414;53.436;8.828;2022-11-02T02:12:51;101116.94;;;11.92
74060;BMP280;62414;53.436;8.828;2022-11-02T02:15:19;101102.59;;;11.92
74060;BMP280;62414;53.436;8.828;2022-11-02T02:17:50;101105.75;;;11.90
74060;BMP280;62414;53.436;8.828;2022-11-02T02:20:34;101103.03;;;11.90
74060;BMP280;62414;53.436;8.828;2022-11-02T02:23:16;101113.88;;;11.90
74060;BMP280;62414;53.436;8.828;2022-11-02T02:28:47;101107.28;;;11.91
74060;BMP280;62414;53.436;8.828;2022-11-02T02:31:16;101101.84;;;11.91
74060;BMP280;62414;53.436;8.828;2022-11-02T02:33:47;101101.94;;;11.88
74060;BMP280;62414;53.436;8.828;2022-11-02T02:36:20;101097.72;;;11.87
74060;BMP280;62414;53.436;8.828;2022-11-02T02:38:48;101101.38;;;11.80
74060;BMP280;62414;53.436;8.828;2022-11-02T02:41:23;101099.16;;;11.75
74060;BMP280;62414;53.436;8.828;2022-11-02T02:43:53;101099.31;;;11.71
74060;BMP280;62414;53.436;8.828;2022-11-02T02:46:22;101095.91;;;11.67
74060;BMP280;62414;53.436;8.828;2022-11-02T02:48:51;101087.19;;;11.60
74060;BMP280;62414;53.436;8.828;2022-11-02T02:51:20;101090.00;;;11.56
74060;BMP280;62414;53.436;8.828;2022-11-02T02:53:49;101085.84;;;11.51
74060;BMP280;62414;53.436;8.828;2022-11-02T02:56:20;101081.72;;;11.47
74060;BMP280;62414;53.436;8.828;2022-11-02T02:58:51;101085.72;;;11.42
74060;BMP280;62414;53.436;8.828;2022-11-02T03:01:20;101086.22;;;11.37
74060;BMP280;62414;53.436;8.828;2022-11-02T03:03:46;101086.66;;;11.36
74060;BMP280;62414;53.436;8.828;2022-11-02T03:06:16;101087.19;;;11.31
74060;BMP280;62414;53.436;8.828;2022-11-02T03:08:55;101094.97;;;11.29
74060;BMP280;62414;53.436;8.828;2022-11-02T03:11:24;101086.50;;;11.26
74060;BMP280;62414;53.436;8.828;2022-11-02T03:14:03;101093.56;;;11.24
74060;BMP280;62414;53.436;8.828;2022-11-02T03:16:41;101083.47;;;11.24
74060;BMP280;62414;53.436;8.828;2022-11-02T03:19:18;101076.88;;;11.25
74060;BMP280;62414;53.436;8.828;2022-11-02T03:21:49;101077.63;;;11.26
74060;BMP280;62414;53.436;8.828;2022-11-02T03:24:21;101076.34;;;11.31
74060;BMP280;62414;53.436;8.828;2022-11-02T03:26:59;101077.03;;;11.35
74060;BMP280;62414;53.436;8.828;2022-11-02T03:29:36;101076.94;;;11.38
74060;BMP280;62414;53.436;8.828;2022-11-02T03:32:07;101073.69;;;11.43
74060;BMP280;62414;53.436;8.828;2022-11-02T03:34:38;101072.00;;;11.49
74060;BMP280;62414;53.436;8.828;2022-11-02T03:37:10;101080.72;;;11.57
74060;BMP280;62414;53.436;8.828;2022-11-02T03:39:39;101080.19;;;11.62
74060;BMP280;62414;53.436;8.828;2022-11-02T03:42:10;101073.84;;;11.65
74060;BMP280;62414;53.436;8.828;2022-11-02T03:44:38;101079.63;;;11.67
74060;BMP280;62414;53.436;8.828;2022-11-02T03:47:07;101076.06;;;11.70
74060;BMP280;62414;53.436;8.828;2022-11-02T03:49:36;101079.03;;;11.76
74060;BMP280;62414;53.436;8.828;2022-11-02T03:52:07;101073.16;;;11.77
74060;BMP280;62414;53.436;8.828;2022-11-02T03:54:39;101073.16;;;11.77
74060;BMP280;62414;53.436;8.828;2022-11-02T03:57:08;101071.53;;;11.80
74060;BMP280;62414;53.436;8.828;2022-11-02T03:59:37;101078.06;;;11.82
74060;BMP280;62414;53.436;8.828;2022-11-02T04:02:03;101074.56;;;11.82
74060;BMP280;62414;53.436;8.828;2022-11-02T04:04:29;101073.59;;;11.89
74060;BMP280;62414;53.436;8.828;2022-11-02T04:06:55;101088.06;;;11.98
74060;BMP280;62414;53.436;8.828;2022-11-02T04:09:21;101081.44;;;11.99
74060;BMP280;62414;53.436;8.828;2022-11-02T04:11:46;101087.22;;;12.01
74060;BMP280;62414;53.436;8.828;2022-11-02T04:14:13;101085.28;;;12.02
74060;BMP280;62414;53.436;8.828;2022-11-02T04:16:42;101083.22;;;12.06
74060;BMP280;62414;53.436;8.828;2022-11-02T04:19:14;101092.69;;;12.14
74060;BMP280;62414;53.436;8.828;2022-11-02T04:21:41;101086.91;;;12.12
74060;BMP280;62414;53.436;8.828;2022-11-02T04:24:07;101088.84;;;12.11
74060;BMP280;62414;53.436;8.828;2022-11-02T04:26:33;101082.66;;;12.11
74060;BMP280;62414;53.436;8.828;2022-11-02T04:28:58;101080.28;;;12.13
74060;BMP280;62414;53.436;8.828;2022-11-02T04:31:24;101077.38;;;12.20
74060;BMP280;62414;53.436;8.828;2022-11-02T04:33:50;101078.13;;;12.21
74060;BMP280;62414;53.436;8.828;2022-11-02T04:36:17;101088.13;;;12.24
74060;BMP280;62414;53.436;8.828;2022-11-02T04:38:47;101093.44;;;12.27
74060;BMP280;62414;53.436;8.828;2022-11-02T04:41:24;101091.34;;;12.31
74060;BMP280;62414;53.436;8.828;2022-11-02T04:43:51;101099.84;;;12.33
74060;BMP280;62414;53.436;8.828;2022-11-02T04:46:19;101105.16;;;12.37
74060;BMP280;62414;53.436;8.828;2022-11-02T04:48:45;101116.69;;;12.41
74060;BMP280;62414;53.436;8.828;2022-11-02T04:51:12;101111.16;;;12.44
74060;BMP280;62414;53.436;8.828;2022-11-02T04:53:38;101113.00;;;12.48
74060;BMP280;62414;53.436;8.828;2022-11-02T04:56:07;101108.53;;;12.54
74060;BMP280;62414;53.436;8.828;2022-11-02T04:58:33;101099.31;;;12.51
74060;BMP280;62414;53.436;8.828;2022-11-02T05:01:03;101107.56;;;12.48
74060;BMP280;62414;53.436;8.828;2022-11-02T05:03:29;101105.81;;;12.41
74060;BMP280;62414;53.436;8.828;2022-11-02T05:05:55;101099.41;;;12.35
74060;BMP280;62414;53.436;8.828;2022-11-02T05:08:23;101113.19;;;12.28
74060;BMP280;62414;53.436;8.828;2022-11-02T05:10:53;101114.16;;;12.21
74060;BMP280;62414;53.436;8.828;2022-11-02T05:13:18;101108.53;;;12.15
74060;BMP280;62414;53.436;8.828;2022-11-02T05:15:44;101104.06;;;12.09
74060;BMP280;62414;53.436;8.828;2022-11-02T05:18:10;101113.50;;;12.04
74060;BMP280;62414;53.436;8.828;2022-11-02T05:20:35;101109.78;;;11.98
74060;BMP280;62414;53.436;8.828;2022-11-02T05:23:01;101106.50;;;11.91
74060;BMP280;62414;53.436;8.828;2022-11-02T05:25:31;101101.94;;;11.88
74060;BMP280;62414;53.436;8.828;2022-11-02T05:27:57;101109.06;;;11.81
74060;BMP280;62414;53.436;8.828;2022-11-02T05:30:23;101108.00;;;11.79
74060;BMP280;62414;53.436;8.828;2022-11-02T05:32:48;101112.97;;;11.80
74060;BMP280;62414;53.436;8.828;2022-11-02T05:35:14;101120.78;;;11.78
74060;BMP280;62414;53.436;8.828;2022-11-02T05:37:42;101119.69;;;11.76
74060;BMP280;62414;53.436;8.828;2022-11-02T05:40:08;101122.59;;;11.69
74060;BMP280;62414;53.436;8.828;2022-11-02T05:42:36;101127.34;;;11.65
74060;BMP280;62414;53.436;8.828;2022-11-02T05:45:01;101128.97;;;11.62
74060;BMP280;62414;53.436;8.828;2022-11-02T05:47:27;101130.69;;;11.56
74060;BMP280;62414;53.436;8.828;2022-11-02T05:49:52;101121.09;;;11.51
74060;BMP280;62414;53.436;8.828;2022-11-02T05:52:18;101140.00;;;11.55
74060;BMP280;62414;53.436;8.828;2022-11-02T05:54:43;101136.59;;;11.51
74060;BMP280;62414;53.436;8.828;2022-11-02T05:57:09;101130.13;;;11.48
74060;BMP280;62414;53.436;8.828;2022-11-02T05:59:35;101144.84;;;11.47
74060;BMP280;62414;53.436;8.828;2022-11-02T06:02:01;101138.56;;;11.50
74060;BMP280;62414;53.436;8.828;2022-11-02T06:04:26;101136.72;;;11.47
74060;BMP280;62414;53.436;8.828;2022-11-02T06:06:52;101131.31;;;11.47
74060;BMP280;62414;53.436;8.828;2022-11-02T06:09:17;101134.84;;;11.44
74060;BMP280;62414;53.436;8.828;2022-11-02T06:11:42;101134.50;;;11.42
74060;BMP280;62414;53.436;8.828;2022-11-02T06:14:08;101130.72;;;11.40
74060;BMP280;62414;53.436;8.828;2022-11-02T06:16:35;101128.75;;;11.40
74060;BMP280;62414;53.436;8.828;2022-11-02T06:19:00;101139.59;;;11.40
74060;BMP280;62414;53.436;8.828;2022-11-02T06:21:25;101135.78;;;11.38
74060;BMP280;62414;53.436;8.828;2022-11-02T06:23:51;101141.31;;;11.34
74060;BMP280;62414;53.436;8.828;2022-11-02T06:26:16;101133.50;;;11.36
74060;BMP280;62414;53.436;8.828;2022-11-02T06:28:42;101138.91;;;11.36
74060;BMP280;62414;53.436;8.828;2022-11-02T06:31:08;101138.47;;;11.38
74060;BMP280;62414;53.436;8.828;2022-11-02T06:33:35;101136.97;;;11.37
74060;BMP280;62414;53.436;8.828;2022-11-02T06:36:00;101162.13;;;11.37
74060;BMP280;62414;53.436;8.828;2022-11-02T06:38:26;101143.41;;;11.43
74060;BMP280;62414;53.436;8.828;2022-11-02T06:40:52;101143.75;;;11.45
74060;BMP280;62414;53.436;8.828;2022-11-02T06:43:18;101153.16;;;11.40
74060;BMP280;62414;53.436;8.828;2022-11-02T06:45:43;101150.34;;;11.44
74060;BMP280;62414;53.436;8.828;2022-11-02T06:48:09;101149.16;;;11.45
74060;BMP280;62414;53.436;8.828;2022-11-02T06:50:35;101152.63;;;11.45
74060;BMP280;62414;53.436;8.828;2022-11-02T06:53:01;101147.56;;;11.47
74060;BMP280;62414;53.436;8.828;2022-11-02T06:55:27;101153.41;;;11.46
74060;BMP280;62414;53.436;8.828;2022-11-02T06:57:53;101153.81;;;11.44
74060;BMP280;62414;53.436;8.828;2022-11-02T07:00:18;101146.53;;;11.41
74060;BMP280;62414;53.436;8.828;2022-11-02T07:02:44;101149.16;;;11.45
74060;BMP280;62414;53.436;8.828;2022-11-02T07:05:10;101160.59;;;11.52
74060;BMP280;62414;53.436;8.828;2022-11-02T07:07:37;101158.56;;;11.56
74060;BMP280;62414;53.436;8.828;2022-11-02T07:10:03;101154.31;;;11.55
74060;BMP280;62414;53.436;8.828;2022-11-02T07:12:30;101155.75;;;11.60
74060;BMP280;62414;53.436;8.828;2022-11-02T07:14:56;101166.06;;;11.65
74060;BMP280;62414;53.436;8.828;2022-11-02T07:17:21;101169.13;;;11.67
74060;BMP280;62414;53.436;8.828;2022-11-02T07:19:47;101166.69;;;11.73
74060;BMP280;62414;53.436;8.828;2022-11-02T07:22:12;101182.41;;;11.78
74060;BMP280;62414;53.436;8.828;2022-11-02T07:24:39;101181.13;;;11.82
74060;BMP280;62414;53.436;8.828;2022-11-02T07:27:04;101167.13;;;11.84
74060;BMP280;62414;53.436;8.828;2022-11-02T07:29:30;101173.22;;;11.88
74060;BMP280;62414;53.436;8.828;2022-11-02T07:31:55;101189.06;;;11.90
74060;BMP280;62414;53.436;8.828;2022-11-02T07:34:21;101186.19;;;11.97
74060;BMP280;62414;53.436;8.828;2022-11-02T07:36:46;101191.81;;;12.02
74060;BMP280;62414;53.436;8.828;2022-11-02T07:39:12;101196.75;;;12.07
74060;BMP280;62414;53.436;8.828;2022-11-02T07:41:38;101193.63;;;12.09
74060;BMP280;62414;53.436;8.828;2022-11-02T07:44:04;101194.69;;;12.11
74060;BMP280;62414;53.436;8.828;2022-11-02T07:46:34;101201.31;;;12.10
74060;BMP280;62414;53.436;8.828;2022-11-02T07:48:59;101215.56;;;12.14
74060;BMP280;62414;53.436;8.828;2022-11-02T07:51:25;101210.16;;;12.27
74060;BMP280;62414;53.436;8.828;2022-11-02T07:53:50;101221.41;;;12.42
74060;BMP280;62414;53.436;8.828;2022-11-02T07:56:16;101220.50;;;12.45
74060;BMP280;62414;53.436;8.828;2022-11-02T07:58:42;101213.88;;;12.46
74060;BMP280;62414;53.436;8.828;2022-11-02T08:01:08;101223.38;;;12.54
74060;BMP280;62414;53.436;8.828;2022-11-02T08:03:33;101226.03;;;12.70
74060;BMP280;62414;53.436;8.828;2022-11-02T08:05:59;101226.22;;;12.76
74060;BMP280;62414;53.436;8.828;2022-11-02T08:08:25;101238.81;;;12.83
74060;BMP280;62414;53.436;8.828;2022-11-02T08:10:51;101238.63;;;12.90
74060;BMP280;62414;53.436;8.828;2022-11-02T08:13:18;101244.81;;;12.90
74060;BMP280;62414;53.436;8.828;2022-11-02T08:15:47;101237.00;;;12.92
74060;BMP280;62414;53.436;8.828;2022-11-02T08:18:14;101252.84;;;12.94
74060;BMP280;62414;53.436;8.828;2022-11-02T08:20:40;101246.63;;;12.93
74060;BMP280;62414;53.436;8.828;2022-11-02T08:23:06;101254.16;;;12.89
74060;BMP280;62414;53.436;8.828;2022-11-02T08:25:32;101252.22;;;12.90
74060;BMP280;62414;53.436;8.828;2022-11-02T08:27:58;101260.16;;;12.97
74060;BMP280;62414;53.436;8.828;2022-11-02T08:30:24;101263.72;;;13.06
74060;BMP280;62414;53.436;8.828;2022-11-02T08:32:50;101261.56;;;13.14
74060;BMP280;62414;53.436;8.828;2022-11-02T08:35:16;101266.22;;;13.14
74060;BMP280;62414;53.436;8.828;2022-11-02T08:37:41;101260.03;;;13.13
74060;BMP280;62414;53.436;8.828;2022-11-02T08:40:08;101259.28;;;13.13
74060;BMP280;62414;53.436;8.828;2022-11-02T08:42:34;101264.94;;;13.05
74060;BMP280;62414;53.436;8.828;2022-11-02T08:44:59;101270.81;;;13.04
74060;BMP280;62414;53.436;8.828;2022-11-02T08:47:24;101273.75;;;13.10
74060;BMP280;62414;53.436;8.828;2022-11-02T08:49:51;101260.81;;;13.14
74060;BMP280;62414;53.436;8.828;2022-11-02T08:52:17;101272.34;;;13.18
74060;BMP280;62414;53.436;8.828;2022-11-02T08:54:42;101283.22;;;13.18
74060;BMP280;62414;53.436;8.828;2022-11-02T08:57:08;101289.63;;;13.11
74060;BMP280;62414;53.436;8.828;2022-11-02T08:59:33;101285.69;;;13.12
74060;BMP280;62414;53.436;8.828;2022-11-02T09:01:59;101296.25;;;13.10
74060;BMP280;62414;53.436;8.828;2022-11-02T09:04:24;101311.88;;;13.06
74060;BMP280;62414;53.436;8.828;2022-11-02T09:06:51;101307.00;;;13.01
74060;BMP280;62414;53.436;8.828;2022-11-02T09:09:16;101314.31;;;13.04
74060;BMP280;62414;53.436;8.828;2022-11-02T09:11:42;101317.88;;;13.01
74060;BMP280;62414;53.436;8.828;2022-11-02T09:14:07;101306.91;;;12.92
74060;BMP280;62414;53.436;8.828;2022-11-02T09:16:33;101319.09;;;12.58
74060;BMP280;62414;53.436;8.828;2022-11-02T09:18:58;101304.59;;;12.20
74060;BMP280;62414;53.436;8.828;2022-11-02T09:21:24;101315.66;;;11.80
74060;BMP280;62414;53.436;8.828;2022-11-02T09:23:50;101310.25;;;11.47
74060;BMP280;62414;53.436;8.828;2022-11-02T09:26:16;101306.22;;;11.36
74060;BMP280;62414;53.436;8.828;2022-11-02T09:28:41;101304.88;;;11.27
74060;BMP280;62414;53.436;8.828;2022-11-02T09:31:08;101297.81;;;11.30
74060;BMP280;62414;53.436;8.828;2022-11-02T09:33:33;101301.50;;;11.40
74060;BMP280;62414;53.436;8.828;2022-11-02T09:36:01;101287.25;;;11.52
74060;BMP280;62414;53.436;8.828;2022-11-02T09:38:26;101302.13;;;11.64
74060;BMP280;62414;53.436;8.828;2022-11-02T09:41:01;101300.78;;;11.72
74060;BMP280;62414;53.436;8.828;2022-11-02T09:43:36;101311.25;;;11.70
74060;BMP280;62414;53.436;8.828;2022-11-02T09:46:04;101321.69;;;11.88
74060;BMP280;62414;53.436;8.828;2022-11-02T09:48:33;101323.78;;;12.12
74060;BMP280;62414;53.436;8.828;2022-11-02T09:51:04;101332.88;;;12.06
74060;BMP280;62414;53.436;8.828;2022-11-02T09:53:37;101334.03;;;12.21
74060;BMP280;62414;53.436;8.828;2022-11-02T09:56:07;101341.88;;;12.48
74060;BMP280;62414;53.436;8.828;2022-11-02T09:58:36;101355.63;;;12.70
74060;BMP280;62414;53.436;8.828;2022-11-02T10:01:10;101358.78;;;12.68
74060;BMP280;62414;53.436;8.828;2022-11-02T10:03:46;101370.22;;;12.76
74060;BMP280;62414;53.436;8.828;2022-11-02T10:06:18;101366.16;;;12.68
74060;BMP280;62414;53.436;8.828;2022-11-02T10:08:50;101368.44;;;12.69
74060;BMP280;62414;53.436;8.828;2022-11-02T10:11:31;101364.81;;;12.89
74060;BMP280;62414;53.436;8.828;2022-11-02T10:14:01;101379.28;;;12.98
74060;BMP280;62414;53.436;8.828;2022-11-02T10:16:32;101381.56;;;13.00
74060;BMP280;62414;53.436;8.828;2022-11-02T10:19:02;101381.59;;;13.13
74060;BMP280;62414;53.436;8.828;2022-11-02T10:21:31;101373.25;;;13.32
74060;BMP280;62414;53.436;8.828;2022-11-02T10:23:59;101386.53;;;13.30
74060;BMP280;62414;53.436;8.828;2022-11-02T10:26:32;101393.06;;;13.33
74060;BMP280;62414;53.436;8.828;2022-11-02T10:29:02;101395.25;;;13.38
74060;BMP280;62414;53.436;8.828;2022-11-02T10:31:30;101399.47;;;13.39
74060;BMP280;62414;53.436;8.828;2022-11-02T10:34:15;101402.84;;;13.18
74060;BMP280;62414;53.436;8.828;2022-11-02T10:36:49;101404.31;;;13.06
74060;BMP280;62414;53.436;8.828;2022-11-02T10:39:21;101409.63;;;12.97
74060;BMP280;62414;53.436;8.828;2022-11-02T10:42:14;101407.56;;;13.01
74060;BMP280;62414;53.436;8.828;2022-11-02T10:44:53;101416.41;;;13.05
74060;BMP280;62414;53.436;8.828;2022-11-02T10:47:23;101406.06;;;13.13
74060;BMP280;62414;53.436;8.828;2022-11-02T10:50:34;101410.78;;;12.83
74060;BMP280;62414;53.436;8.828;2022-11-02T10:53:01;101412.00;;;12.66
74060;BMP280;62414;53.436;8.828;2022-11-02T10:55:33;101419.25;;;12.56
74060;BMP280;62414;53.436;8.828;2022-11-02T10:58:03;101418.19;;;12.37
74060;BMP280;62414;53.436;8.828;2022-11-02T11:00:32;101425.22;;;12.19
74060;BMP280;62414;53.436;8.828;2022-11-02T11:03:08;101429.75;;;11.89
74060;BMP280;62414;53.436;8.828;2022-11-02T11:05:37;101417.56;;;11.81
74060;BMP280;62414;53.436;8.828;2022-11-02T11:08:03;101427.78;;;11.73
74060;BMP280;62414;53.436;8.828;2022-11-02T11:10:34;101430.84;;;11.75
74060;BMP280;62414;53.436;8.828;2022-11-02T11:13:02;101421.31;;;11.87
74060;BMP280;62414;53.436;8.828;2022-11-02T11:15:30;101421.06;;;11.98
74060;BMP280;62414;53.436;8.828;2022-11-02T11:17:57;101423.53;;;12.08
74060;BMP280;62414;53.436;8.828;2022-11-02T11:20:31;101436.09;;;12.19
74060;BMP280;62414;53.436;8.828;2022-11-02T11:23:10;101448.66;;;12.29
74060;BMP280;62414;53.436;8.828;2022-11-02T11:25:41;101458.03;;;12.40
74060;BMP280;62414;53.436;8.828;2022-11-02T11:28:21;101468.66;;;12.51
74060;BMP280;62414;53.436;8.828;2022-11-02T11:30:47;101473.88;;;12.74
74060;BMP280;62414;53.436;8.828;2022-11-02T11:33:16;101481.38;;;12.70
74060;BMP280;62414;53.436;8.828;2022-11-02T11:35:46;101497.72;;;12.83
74060;BMP280;62414;53.436;8.828;2022-11-02T11:38:15;101495.06;;;12.80
74060;BMP280;62414;53.436;8.828;2022-11-02T11:40:43;101503.13;;;12.70
74060;BMP280;62414;53.436;8.828;2022-11-02T11:43:13;101506.22;;;12.69
74060;BMP280;62414;53.436;8.828;2022-11-02T11:45:52;101510.81;;;12.56
74060;BMP280;62414;53.436;8.828;2022-11-02T11:48:26;101501.84;;;12.42
74060;BMP280;62414;53.436;8.828;2022-11-02T11:50:56;101508.97;;;12.36
74060;BMP280;62414;53.436;8.828;2022-11-02T11:53:23;101524.34;;;12.43
74060;BMP280;62414;53.436;8.828;2022-11-02T11:55:50;101518.63;;;12.54
74060;BMP280;62414;53.436;8.828;2022-11-02T11:58:20;101510.50;;;12.54
74060;BMP280;62414;53.436;8.828;2022-11-02T12:01:01;101517.19;;;12.49
74060;BMP280;62414;53.436;8.828;2022-11-02T12:03:27;101509.72;;;12.53
74060;BMP280;62414;53.436;8.828;2022-11-02T12:05:59;101516.69;;;12.70
74060;BMP280;62414;53.436;8.828;2022-11-02T12:08:35;101511.72;;;12.98
74060;BMP280;62414;53.436;8.828;2022-11-02T12:11:12;101508.09;;;13.17
74060;BMP280;62414;53.436;8.828;2022-11-02T12:14:01;101528.63;;;13.05
74060;BMP280;62414;53.436;8.828;2022-11-02T12:16:44;101542.41;;;12.82
74060;BMP280;62414;53.436;8.828;2022-11-02T12:19:22;101532.13;;;12.73
74060;BMP280;62414;53.436;8.828;2022-11-02T12:22:00;101537.25;;;12.71
74060;BMP280;62414;53.436;8.828;2022-11-02T12:24:38;101542.31;;;12.69
74060;BMP280;62414;53.436;8.828;2022-11-02T12:27:13;101547.16;;;12.78
74060;BMP280;62414;53.436;8.828;2022-11-02T12:30:03;101546.97;;;12.69
74060;BMP280;62414;53.436;8.828;2022-11-02T12:32:55;101543.69;;;12.61
74060;BMP280;62414;53.436;8.828;2022-11-02T12:35:34;101555.91;;;12.69
74060;BMP280;62414;53.436;8.828;2022-11-02T12:38:19;101559.38;;;12.86
74060;BMP280;62414;53.436;8.828;2022-11-02T12:40:52;101562.66;;;13.10
74060;BMP280;62414;53.436;8.828;2022-11-02T12:43:36;101571.94;;;13.42
74060;BMP280;62414;53.436;8.828;2022-11-02T12:46:11;101567.00;;;13.65
74060;BMP280;62414;53.436;8.828;2022-11-02T12:48:44;101589.63;;;13.62
74060;BMP280;62414;53.436;8.828;2022-11-02T12:51:16;101605.25;;;13.87
74060;BMP280;62414;53.436;8.828;2022-11-02T12:53:48;101599.59;;;14.58
74060;BMP280;62414;53.436;8.828;2022-11-02T12:56:19;101593.84;;;14.43
74060;BMP280;62414;53.436;8.828;2022-11-02T12:58:46;101607.78;;;13.94
74060;BMP280;62414;53.436;8.828;2022-11-02T13:01:19;101608.09;;;13.55
74060;BMP280;62414;53.436;8.828;2022-11-02T13:03:50;101607.81;;;13.65
74060;BMP280;62414;53.436;8.828;2022-11-02T13:06:22;101613.66;;;13.51
74060;BMP280;62414;53.436;8.828;2022-11-02T13:08:52;101613.50;;;13.26
74060;BMP280;62414;53.436;8.828;2022-11-02T13:11:22;101613.88;;;13.12
74060;BMP280;62414;53.436;8.828;2022-11-02T13:13:50;101626.59;;;13.60
74060;BMP280;62414;53.436;8.828;2022-11-02T13:16:24;101620.31;;;14.05
74060;BMP280;62414;53.436;8.828;2022-11-02T13:18:54;101609.38;;;13.79
74060;BMP280;62414;53.436;8.828;2022-11-02T13:21:26;101621.03;;;13.51
74060;BMP280;62414;53.436;8.828;2022-11-02T13:23:55;101608.16;;;13.39
74060;BMP280;62414;53.436;8.828;2022-11-02T13:26:25;101615.16;;;13.23
74060;BMP280;62414;53.436;8.828;2022-11-02T13:28:53;101618.31;;;13.51
74060;BMP280;62414;53.436;8.828;2022-11-02T13:31:27;101623.97;;;15.22
74060;BMP280;62414;53.436;8.828;2022-11-02T13:33:55;101629.56;;;15.83
74060;BMP280;62414;53.436;8.828;2022-11-02T13:36:24;101638.75;;;15.77
74060;BMP280;62414;53.436;8.828;2022-11-02T13:38:54;101638.56;;;16.92
74060;BMP280;62414;53.436;8.828;2022-11-02T13:41:35;101640.84;;;18.23
74060;BMP280;62414;53.436;8.828;2022-11-02T13:44:49;101649.97;;;18.77
74060;BMP280;62414;53.436;8.828;2022-11-02T13:47:41;101654.78;;;18.67
74060;BMP280;62414;53.436;8.828;2022-11-02T13:50:12;101647.56;;;19.82
74060;BMP280;62414;53.436;8.828;2022-11-02T13:52:41;101654.38;;;20.42
74060;BMP280;62414;53.436;8.828;2022-11-02T13:55:09;101651.69;;;18.42
74060;BMP280;62414;53.436;8.828;2022-11-02T13:57:41;101659.28;;;18.47
74060;BMP280;62414;53.436;8.828;2022-11-02T14:00:27;101662.06;;;18.14
74060;BMP280;62414;53.436;8.828;2022-11-02T14:02:57;101669.78;;;16.54
74060;BMP280;62414;53.436;8.828;2022-11-02T14:05:28;101665.41;;;16.66
74060;BMP280;62414;53.436;8.828;2022-11-02T14:07:58;101662.59;;;17.94
74060;BMP280;62414;53.436;8.828;2022-11-02T14:10:24;101667.69;;;18.19
74060;BMP280;62414;53.436;8.828;2022-11-02T14:12:50;101673.78;;;16.31